• Join FlightAware (Why Join?)
  • Login
  • US Flag 
03:38PM EDT


 

Airport Tracker/Info


-or-


 

Live Flight TrackerFlight Track Log ✈ CHH7968 ✈ 25-May-2013 ✈ UIII / IKT - ZBAA / PEK

Flight Track Log - Related Links

Times and Time Zones

All times are in EDT time to prevent confusion due to time zone crossing. See the CHH7968 flight status page for this flight to view local times or setup timezone preferences in your user account.

Time Position Orientation Groundspeed Altitude Reporting Facility
EDT Latitude Longitude Course Direction KTS MPH feet Rate Location/Type
04:29AM 51.9037 104.8710 141° Southeast  Level Estimated
04:30AM 51.8123 104.9903 141° Southeast  Level Estimated
04:31AM 51.7208 105.1091 141° Southeast  Level Estimated
04:32AM 51.6292 105.2274 141° Southeast  Level Estimated
04:33AM 51.5375 105.3453 141° Southeast  Level Estimated
04:34AM 51.4456 105.4626 141° Southeast  Level Estimated
04:35AM 51.3536 105.5795 142° Southeast  Level Estimated
04:36AM 51.2615 105.6960 142° Southeast  Level Estimated
04:37AM 51.1693 105.8119 142° Southeast  Level Estimated
04:38AM 51.0770 105.9274 142° Southeast  Level Estimated
04:39AM 50.9846 106.0425 142° Southeast  Level Estimated
04:40AM 50.8920 106.1571 142° Southeast  Level Estimated
04:41AM 50.7994 106.2712 142° Southeast  Level Estimated
04:42AM 50.7066 106.3849 142° Southeast  Level Estimated
04:43AM 50.6137 106.4981 142° Southeast  Level Estimated
04:44AM 50.5207 106.6109 142° Southeast  Level Estimated
04:45AM 50.4276 106.7232 142° Southeast  Level Estimated
04:46AM 50.3344 106.8351 143° Southeast  Level Estimated
04:47AM 50.2411 106.9466 143° Southeast  Level Estimated
04:48AM 50.1477 107.0576 143° Southeast  Level Estimated
04:49AM 50.0542 107.1682 143° Southeast  Level Estimated
04:50AM 49.9605 107.2784 143° Southeast  Level Estimated
04:51AM 49.8668 107.3881 143° Southeast  Level Estimated
04:52AM 49.7730 107.4974 143° Southeast  Level Estimated
04:53AM 49.6790 107.6063 143° Southeast  Level Estimated
04:54AM 49.5850 107.7147 143° Southeast  Level Estimated
04:55AM 49.4908 107.8228 143° Southeast  Level Estimated
04:56AM 49.3966 107.9304 143° Southeast  Level Estimated
04:57AM 49.3023 108.0376 143° Southeast  Level Estimated
04:58AM 49.2078 108.1444 144° Southeast  Level Estimated
04:59AM 49.1133 108.2508 144° Southeast  Level Estimated
05:00AM 49.0187 108.3568 144° Southeast  Level Estimated
05:01AM 48.9239 108.4624 144° Southeast  Level Estimated
05:02AM 48.8291 108.5676 144° Southeast  Level Estimated
05:03AM 48.7342 108.6724 144° Southeast  Level Estimated
05:04AM 48.6392 108.7768 144° Southeast  Level Estimated
05:05AM 48.5440 108.8808 144° Southeast  Level Estimated
05:06AM 48.4488 108.9845 144° Southeast  Level Estimated
05:07AM 48.3535 109.0877 144° Southeast  Level Estimated
05:08AM 48.2582 109.1905 144° Southeast  Level Estimated
05:09AM 48.1627 109.2930 144° Southeast  Level Estimated
05:10AM 48.0671 109.3951 144° Southeast  Level Estimated
05:11AM 47.9715 109.4968 145° Southeast  Level Estimated
05:12AM 47.8757 109.5981 145° Southeast  Level Estimated
05:13AM 47.7799 109.6990 145° Southeast  Level Estimated
05:14AM 47.6839 109.7996 145° Southeast  Level Estimated
05:15AM 47.5879 109.8998 145° Southeast  Level Estimated
05:16AM 47.4918 109.9997 145° Southeast  Level Estimated
05:17AM 47.3956 110.0991 145° Southeast  Level Estimated
05:18AM 47.2994 110.1983 145° Southeast  Level Estimated
05:19AM 47.2030 110.2970 145° Southeast  Level Estimated
05:20AM 47.1065 110.3954 145° Southeast  Level Estimated
05:21AM 47.0100 110.4934 145° Southeast  Level Estimated
05:22AM 46.9134 110.5911 145° Southeast  Level Estimated
05:23AM 46.8167 110.6885 145° Southeast  Level Estimated
05:24AM 46.7199 110.7855 145° Southeast  Level Estimated
05:25AM 46.6231 110.8821 146° Southeast  Level Estimated
05:26AM 46.5261 110.9784 146° Southeast  Level Estimated
05:27AM 46.4291 111.0743 146° Southeast  Level Estimated
05:28AM 46.3320 111.1700 146° Southeast  Level Estimated
05:29AM 46.2348 111.2652 146° Southeast  Level Estimated
05:30AM 46.1376 111.3602 146° Southeast  Level Estimated
05:31AM 46.0402 111.4548 146° Southeast  Level Estimated
05:32AM 45.9428 111.5490 146° Southeast  Level Estimated
05:33AM 45.8453 111.6429 146° Southeast  Level Estimated
05:34AM 45.7478 111.7365 146° Southeast  Level Estimated
05:35AM 45.6501 111.8298 146° Southeast  Level Estimated
05:36AM 45.5524 111.9228 146° Southeast  Level Estimated
05:37AM 45.4546 112.0154 146° Southeast  Level Estimated
05:38AM 45.3567 112.1077 146° Southeast  Level Estimated
05:39AM 45.2588 112.1997 147° Southeast  Level Estimated
05:40AM 45.1608 112.2914 147° Southeast  Level Estimated
05:41AM 45.0627 112.3827 147° Southeast  Level Estimated
05:42AM 44.9645 112.4738 147° Southeast  Level Estimated
05:43AM 44.8663 112.5645 147° Southeast  Level Estimated
05:44AM 44.7680 112.6549 147° Southeast  Level Estimated
05:45AM 44.6696 112.7451 147° Southeast  Level Estimated
05:46AM 44.5712 112.8349 147° Southeast  Level Estimated
05:47AM 44.4726 112.9244 147° Southeast  Level Estimated
05:48AM 44.3740 113.0136 147° Southeast  Level Estimated
05:49AM 44.2754 113.1025 147° Southeast  Level Estimated
05:50AM 44.1767 113.1911 147° Southeast  Level Estimated
05:51AM 44.0779 113.2794 147° Southeast  Level Estimated
05:52AM 43.9790 113.3674 147° Southeast  Level Estimated
05:53AM 43.8801 113.4552 147° Southeast  Level Estimated
05:54AM 43.7811 113.5426 147° Southeast  Level Estimated
05:55AM 43.6820 113.6298 148° Southeast  Level Estimated
05:56AM 43.5829 113.7166 148° Southeast  Level Estimated
05:57AM 43.4837 113.8032 148° Southeast  Level Estimated
05:58AM 43.3844 113.8895 148° Southeast  Level Estimated
05:59AM 43.2851 113.9755 148° Southeast  Level Estimated
06:00AM 43.1857 114.0612 148° Southeast  Level Estimated
06:01AM 43.0863 114.1467 148° Southeast  Level Estimated
06:02AM 42.9868 114.2318 148° Southeast  Level Estimated
06:03AM 42.8872 114.3167 148° Southeast  Level Estimated
06:04AM 42.7875 114.4013 148° Southeast  Level Estimated
06:05AM 42.6878 114.4857 148° Southeast  Level Estimated
06:06AM 42.5881 114.5698 148° Southeast  Level Estimated
06:07AM 42.4882 114.6536 148° Southeast  Level Estimated
06:08AM 42.3884 114.7371 148° Southeast  Level Estimated
06:09AM 42.2884 114.8204 148° Southeast  Level Estimated
06:10AM 42.1884 114.9034 148° Southeast  Level Estimated
06:11AM 42.0883 114.9862 148° Southeast  Level Estimated
06:12AM 41.9882 115.0686 149° Southeast  Level Estimated
06:13AM 41.8880 115.1509 149° Southeast  Level Estimated
06:14AM 41.7878 115.2328 149° Southeast  Level Estimated
06:15AM 41.6875 115.3146 149° Southeast  Level Estimated
06:16AM 41.5871 115.3960 149° Southeast  Level Estimated
06:17AM 41.4867 115.4772 149° Southeast  Level Estimated
06:18AM 41.3862 115.5582 149° Southeast  Level Estimated
06:19AM 41.2857 115.6389 149° Southeast  Level Estimated
06:20AM 41.1851 115.7194 149° Southeast  Level Estimated
06:21AM 41.0844 115.7996 149° Southeast  Level Estimated
06:22AM 40.9837 115.8795 149° Southeast  Level Estimated
06:23AM 40.8830 115.9593 149° Southeast  Level Estimated
06:24AM 40.7822 116.0387 149° Southeast  Level Estimated
06:25AM 40.6813 116.1180 149° Southeast  Level Estimated
06:26AM 40.5804 116.1970 149° Southeast  Level Estimated
06:27AM 40.4794 116.2757 149° Southeast  Level Estimated
06:28AM 40.3784 116.3543 149° Southeast  Level Estimated
06:29AM 40.2773 116.4326 149° Southeast  Level Estimated
06:30AM 40.1762 116.5106 149° Southeast  Level Estimated
06:31AM 40.0801 116.5846 150° Southeast  Level Estimated
06:32AM 40.0801 116.5846 288° West  Level Estimated
06:33AM 40.0801 116.5846 288° West  Level Estimated
06:34AM 40.0801 116.5846 288° West  Level Estimated
06:35AM 40.0801 116.5846 288° West  Level Estimated
06:36AM 40.0801 116.5846 288° West  Level Estimated
06:37AM 40.0801 116.5846 288° West  Level Estimated
06:38AM 40.0801 116.5846 288° West  Level Estimated
06:39AM 40.0801 116.5846 288° West  Level Estimated
06:40AM 40.0801 116.5846 288° West  Level Estimated
06:41AM 40.0801 116.5846 288° West  Level Estimated
06:42AM 40.0801 116.5846 288° West  Level Estimated
06:43AM 40.0801 116.5846 288° West  Level Estimated
06:44AM 40.0801 116.5846 288° West  Level Estimated
06:45AM 40.0801 116.5846 288° West  Level Estimated
06:46AM 40.0801 116.5846 288° West  Level Estimated
06:47AM 40.0801 116.5846 288° West  Level Estimated